Time;durP1;ratioP1;P1;durP2;ratioP2;P2;SDS_P1;SDS_P2;PMS_P1;PMS_P2;Temp;Humidity;BMP_temperature;BMP_pressure;BME280_temperature;BME280_humidity;BME280_pressure;Samples;Min_cycle;Max_cycle;Signal;HPM_P1;HPM_P2
2021/09/24 00:00:27;;;;;;;6.70;1.40;;;;;;;12.62;100.00;100797.31;4921060;28;20056;-85
2021/09/24 00:02:55;;;;;;;9.88;1.63;;;;;;;12.66;100.00;100795.47;4930819;28;20577;-86
2021/09/24 00:05:23;;;;;;;4.55;1.83;;;;;;;12.68;100.00;100788.47;4921054;28;20126;-83
2021/09/24 00:07:51;;;;;;;5.38;1.90;;;;;;;12.69;100.00;100795.44;4936538;28;20609;-85
2021/09/24 00:10:22;;;;;;;11.18;1.92;;;;;;;12.67;100.00;100798.09;4930958;28;20733;-85
2021/09/24 00:12:49;;;;;;;8.80;1.75;;;;;;;12.67;100.00;100805.09;4918462;28;20051;-84
2021/09/24 00:15:18;;;;;;;11.63;1.55;;;;;;;12.63;100.00;100799.00;4932657;28;20075;-83
2021/09/24 00:17:46;;;;;;;6.00;1.95;;;;;;;12.59;100.00;100805.22;4918809;28;20057;-83
2021/09/24 00:20:13;;;;;;;4.80;1.73;;;;;;;12.57;100.00;100807.88;4908503;28;20820;-84
2021/09/24 00:22:41;;;;;;;6.85;1.60;;;;;;;12.60;100.00;100812.22;4933713;28;20127;-84
2021/09/24 00:25:09;;;;;;;5.85;1.90;;;;;;;12.62;100.00;100806.94;4934563;28;20062;-84
2021/09/24 00:27:38;;;;;;;6.18;2.67;;;;;;;12.62;100.00;100806.94;4915736;28;20059;-84
2021/09/24 00:30:08;;;;;;;5.32;1.27;;;;;;;12.61;100.00;100807.84;4927577;28;20101;-84
2021/09/24 00:32:35;;;;;;;6.32;2.30;;;;;;;12.55;100.00;100796.53;4910573;28;20062;-84
2021/09/24 00:35:01;;;;;;;7.20;1.42;;;;;;;12.51;100.00;100802.69;4917236;28;20149;-84
2021/09/24 00:37:28;;;;;;;8.02;2.83;;;;;;;12.45;100.00;100805.44;4932272;28;20215;-86
2021/09/24 00:39:55;;;;;;;13.82;2.95;;;;;;;12.44;100.00;100808.06;4950320;28;20463;-83
2021/09/24 00:42:21;;;;;;;4.63;1.38;;;;;;;12.42;100.00;100802.84;4933274;28;20549;-83
2021/09/24 00:44:51;;;;;;;4.57;1.70;;;;;;;12.41;100.00;100804.59;4931721;28;20039;-83
2021/09/24 00:47:20;;;;;;;5.55;1.70;;;;;;;12.43;100.00;100799.31;4933313;28;20122;-83
2021/09/24 00:49:48;;;;;;;8.00;1.63;;;;;;;12.43;100.00;100799.31;4914330;28;20184;-84
2021/09/24 00:52:18;;;;;;;9.05;1.98;;;;;;;12.44;100.00;100795.81;4934876;28;20130;-84
2021/09/24 00:54:48;;;;;;;9.90;2.63;;;;;;;12.41;100.00;100796.72;4914707;28;20047;-84
2021/09/24 00:57:16;;;;;;;8.77;1.33;;;;;;;12.41;100.00;100801.09;4943834;28;20584;-84
2021/09/24 00:59:43;;;;;;;4.38;1.10;;;;;;;12.40;100.00;100802.00;4935081;28;20047;-84
2021/09/24 01:02:10;;;;;;;9.80;2.10;;;;;;;12.36;100.00;100792.44;4926740;28;20075;-84
2021/09/24 01:04:37;;;;;;;5.65;1.42;;;;;;;12.29;100.00;100798.66;4936218;28;20621;-84
2021/09/24 01:07:04;;;;;;;4.00;1.40;;;;;;;12.22;100.00;100796.09;4932504;28;20515;-84
2021/09/24 01:09:31;;;;;;;9.95;1.73;;;;;;;12.16;100.00;100800.56;4934129;28;20051;-84
2021/09/24 01:11:58;;;;;;;7.97;1.73;;;;;;;12.07;100.00;100799.81;4918886;28;20043;-85
2021/09/24 01:14:29;;;;;;;6.50;1.65;;;;;;;11.97;100.00;100802.53;4911981;28;20073;-83
2021/09/24 01:16:57;;;;;;;4.95;1.48;;;;;;;11.88;100.00;100798.28;4912190;28;20043;-84
2021/09/24 01:19:24;;;;;;;7.13;2.85;;;;;;;11.78;100.00;100804.50;4931486;28;20081;-84
2021/09/24 01:21:54;;;;;;;8.52;1.80;;;;;;;11.70;100.00;100802.81;4934068;28;20049;-83
2021/09/24 01:24:22;;;;;;;5.82;1.48;;;;;;;11.65;100.00;100803.78;4931996;28;20047;-84
2021/09/24 01:26:55;;;;;;;10.43;2.45;;;;;;;11.61;100.00;100799.44;4920986;28;20047;-83
2021/09/24 01:29:25;;;;;;;6.88;1.52;;;;;;;11.53;100.00;100805.63;4929972;28;20066;-84
2021/09/24 01:31:52;;;;;;;4.30;1.35;;;;;;;11.47;100.00;100803.09;4929804;28;20047;-84
2021/09/24 01:34:22;;;;;;;11.00;2.20;;;;;;;11.42;100.00;100802.28;4918898;28;20079;-84
2021/09/24 01:36:52;;;;;;;7.13;2.05;;;;;;;11.38;100.00;100800.53;4931380;28;20509;-84
2021/09/24 01:39:19;;;;;;;6.72;2.67;;;;;;;11.34;100.00;100799.72;4924449;28;20074;-84
2021/09/24 01:41:49;;;;;;;10.13;1.80;;;;;;;11.30;100.00;100792.75;4916017;28;20069;-84
2021/09/24 01:44:16;;;;;;;9.10;1.98;;;;;;;11.27;100.00;100791.94;4916117;28;20051;-84
2021/09/24 01:46:47;;;;;;;10.50;3.20;;;;;;;11.24;100.00;100792.84;4923783;28;20067;-84
2021/09/24 01:49:15;;;;;;;9.30;1.60;;;;;;;11.21;100.00;100792.84;4916041;28;20055;-83
2021/09/24 01:51:44;;;;;;;5.88;1.23;;;;;;;11.16;100.00;100797.25;4936958;28;20111;-83
2021/09/24 01:54:14;;;;;;;5.13;1.90;;;;;;;11.15;100.00;100801.66;4918238;28;20071;-83
2021/09/24 01:56:41;;;;;;;19.80;4.25;;;;;;;11.12;100.00;100799.06;4923800;28;20341;-83
2021/09/24 01:59:08;;;;;;;8.52;1.85;;;;;;;11.08;100.00;100800.84;4950383;28;21081;-83
2021/09/24 02:01:36;;;;;;;11.70;3.17;;;;;;;11.08;100.00;100800.84;4924492;28;20109;-84
2021/09/24 02:04:03;;;;;;;9.80;1.73;;;;;;;11.05;100.00;100800.84;4937487;28;20578;-84
2021/09/24 02:06:30;;;;;;;9.10;2.17;;;;;;;11.03;100.00;100804.34;4933487;28;20046;-83
2021/09/24 02:08:57;;;;;;;11.23;3.22;;;;;;;11.06;100.00;100806.97;4922646;28;20051;-84
2021/09/24 02:11:24;;;;;;;8.80;2.00;;;;;;;11.11;100.00;100809.53;4938833;28;20047;-83
2021/09/24 02:13:53;;;;;;;4.63;1.92;;;;;;;11.14;100.00;100810.38;4919035;28;20047;-84
2021/09/24 02:16:20;;;;;;;7.88;2.05;;;;;;;11.11;100.00;100810.41;4929004;28;20043;-84
2021/09/24 02:18:47;;;;;;;10.63;1.75;;;;;;;11.09;100.00;100812.16;4932258;28;20047;-84
2021/09/24 02:21:13;;;;;;;6.88;1.80;;;;;;;11.11;100.00;100820.00;4936888;28;20066;-83
2021/09/24 02:23:40;;;;;;;11.05;2.28;;;;;;;11.12;100.00;100820.03;4917925;28;20051;-84
2021/09/24 02:26:09;;;;;;;7.40;2.30;;;;;;;11.14;100.00;100822.63;4938513;28;20051;-84
2021/09/24 02:28:37;;;;;;;8.50;2.35;;;;;;;11.13;100.00;100816.50;4938459;28;22456;-83
2021/09/24 02:31:08;;;;;;;10.18;3.38;;;;;;;11.09;100.00;100806.94;4933660;28;20047;-84
2021/09/24 02:33:36;;;;;;;9.55;2.05;;;;;;;11.04;100.00;100812.22;4923230;28;20067;-84
2021/09/24 02:36:06;;;;;;;11.52;2.15;;;;;;;11.01;100.00;100814.00;4935895;28;20050;-83
2021/09/24 02:38:33;;;;;;;5.47;2.75;;;;;;;11.00;100.00;100814.88;4937979;28;20046;-84
2021/09/24 02:41:03;;;;;;;11.43;3.25;;;;;;;11.00;100.00;100821.00;4916147;28;20078;-84
2021/09/24 02:43:31;;;;;;;8.00;1.95;;;;;;;11.01;100.00;100804.38;4919392;28;20051;-84
2021/09/24 02:45:57;;;;;;;8.35;2.08;;;;;;;11.03;100.00;100812.22;4921970;28;20442;-84
2021/09/24 02:48:24;;;;;;;7.53;2.28;;;;;;;11.03;100.00;100806.97;4931193;28;20098;-84
2021/09/24 02:50:50;;;;;;;8.27;2.38;;;;;;;11.02;100.00;100811.34;4938676;28;20048;-84
2021/09/24 02:53:17;;;;;;;7.38;2.33;;;;;;;10.98;100.00;100814.03;4934380;28;20046;-84
2021/09/24 02:55:44;;;;;;;12.07;3.28;;;;;;;10.96;100.00;100808.78;4914903;28;20086;-84
2021/09/24 02:58:10;;;;;;;8.13;2.17;;;;;;;10.96;100.00;100810.53;4931382;28;20509;-83
2021/09/24 03:00:37;;;;;;;6.88;2.72;;;;;;;10.96;100.00;100821.03;4931703;28;20168;-84
2021/09/24 03:03:04;;;;;;;10.20;2.25;;;;;;;10.93;100.00;100814.91;4929046;28;20043;-84
2021/09/24 03:05:31;;;;;;;10.45;3.45;;;;;;;10.95;100.00;100812.31;4931728;28;20051;-83
2021/09/24 03:07:58;;;;;;;16.77;3.63;;;;;;;10.95;100.00;100822.78;4939979;28;20055;-84
2021/09/24 03:10:25;;;;;;;12.25;2.50;;;;;;;10.97;100.00;100821.00;4930058;28;20571;-84
2021/09/24 03:12:51;;;;;;;8.18;2.17;;;;;;;10.95;100.00;100825.41;4910958;28;20055;-84
2021/09/24 03:15:22;;;;;;;12.80;2.65;;;;;;;10.93;100.00;100825.38;4932275;28;20059;-86
2021/09/24 03:17:49;;;;;;;11.27;2.50;;;;;;;10.91;100.00;100827.16;4947151;28;20118;-85
2021/09/24 03:20:15;;;;;;;6.15;1.48;;;;;;;10.87;100.00;100828.06;4938102;28;20043;-85
2021/09/24 03:22:42;;;;;;;6.13;1.92;;;;;;;10.82;100.00;100832.47;4931784;28;20051;-84
2021/09/24 03:25:10;;;;;;;6.22;2.15;;;;;;;10.79;100.00;100829.00;4938114;28;20047;-86
2021/09/24 03:27:41;;;;;;;14.50;3.83;;;;;;;10.78;100.00;100840.34;4914296;28;20510;-84
2021/09/24 03:30:08;;;;;;;10.07;3.05;;;;;;;10.77;100.00;100836.88;4930481;28;20051;-84
2021/09/24 03:32:36;;;;;;;16.88;4.07;;;;;;;10.80;100.00;100830.75;4946580;28;20414;-84
2021/09/24 03:35:03;;;;;;;7.22;3.00;;;;;;;10.81;100.00;100828.09;4911773;28;20047;-83
2021/09/24 03:37:30;;;;;;;5.78;2.35;;;;;;;10.80;100.00;100831.59;4947167;28;20043;-83
2021/09/24 03:39:57;;;;;;;13.70;3.58;;;;;;;10.79;100.00;100829.84;4920788;28;20043;-84
2021/09/24 03:42:24;;;;;;;9.00;3.58;;;;;;;10.77;100.00;100842.13;4919225;28;20051;-84
2021/09/24 03:44:57;;;;;;;15.27;5.05;;;;;;;10.73;100.00;100838.63;4920426;28;20051;-83
2021/09/24 03:47:23;;;;;;;10.45;4.30;;;;;;;10.69;100.00;100842.16;4931882;28;20040;-84
2021/09/24 03:49:50;;;;;;;16.63;7.18;;;;;;;10.65;100.00;100836.94;4934214;28;20058;-84
2021/09/24 03:52:20;;;;;;;28.27;7.07;;;;;;;10.64;100.00;100833.47;4927213;28;20473;-84
2021/09/24 03:54:46;;;;;;;19.83;6.88;;;;;;;10.62;100.00;100835.22;4919298;28;20193;-84
2021/09/24 03:57:13;;;;;;;31.50;6.78;;;;;;;10.61;100.00;100824.75;4936846;28;20043;-84
2021/09/24 03:59:41;;;;;;;23.02;4.88;;;;;;;10.59;100.00;100827.38;4933256;28;20047;-84
2021/09/24 04:02:08;;;;;;;10.23;4.05;;;;;;;10.62;100.00;100826.50;4918140;28;20073;-84
2021/09/24 04:04:35;;;;;;;12.82;4.30;;;;;;;10.69;100.00;100826.44;4933468;28;20047;-83
2021/09/24 04:07:02;;;;;;;13.07;2.45;;;;;;;10.78;100.00;100822.91;4919546;28;20199;-84
2021/09/24 04:09:29;;;;;;;4.97;2.20;;;;;;;10.85;100.00;100818.50;4935255;28;20463;-83
2021/09/24 04:11:56;;;;;;;7.43;1.88;;;;;;;10.89;100.00;100821.06;4930911;28;20053;-84
2021/09/24 04:14:22;;;;;;;6.13;2.17;;;;;;;10.94;100.00;100823.66;4920326;28;20102;-85
2021/09/24 04:16:49;;;;;;;8.55;3.08;;;;;;;10.98;100.00;100827.97;4910694;28;20044;-84
2021/09/24 04:19:16;;;;;;;5.85;2.05;;;;;;;10.93;100.00;100825.38;4919627;28;20079;-84
2021/09/24 04:21:43;;;;;;;6.97;2.28;;;;;;;10.93;100.00;100827.16;4926307;28;20523;-84
2021/09/24 04:24:13;;;;;;;12.77;2.33;;;;;;;10.90;100.00;100822.81;4933985;28;20051;-83
2021/09/24 04:27:01;;;;;;;11.23;2.55;;;;;;;10.89;100.00;100831.53;4934468;28;20043;-85
2021/09/24 04:29:27;;;;;;;9.52;1.90;;;;;;;10.88;100.00;100828.94;4916814;28;20058;-83
2021/09/24 04:32:03;;;;;;;10.65;3.35;;;;;;;10.85;100.00;100829.81;4934856;28;21474;-83
2021/09/24 04:34:38;;;;;;;11.75;1.92;;;;;;;10.84;100.00;100832.47;4917256;29;20469;-83
2021/09/24 04:37:06;;;;;;;11.73;2.30;;;;;;;10.85;100.00;100829.81;4908801;28;20043;-84
2021/09/24 04:39:35;;;;;;;7.22;1.88;;;;;;;10.89;100.00;100826.28;4894529;28;20651;-83
2021/09/24 04:42:02;;;;;;;5.97;1.98;;;;;;;10.90;100.00;100825.41;4919183;28;20524;-84
2021/09/24 04:44:29;;;;;;;5.43;1.88;;;;;;;10.92;100.00;100821.06;4918927;28;20924;-84
2021/09/24 04:46:56;;;;;;;7.90;2.10;;;;;;;10.95;100.00;100822.78;4917856;28;20054;-84
2021/09/24 04:49:26;;;;;;;4.90;2.47;;;;;;;10.93;100.00;100825.38;4923797;28;20071;-84
2021/09/24 04:51:52;;;;;;;6.32;2.42;;;;;;;10.93;100.00;100821.91;4912357;28;20129;-84
2021/09/24 04:54:22;;;;;;;9.63;1.90;;;;;;;10.90;100.00;100821.94;4904008;28;20096;-84
2021/09/24 04:56:52;;;;;;;10.20;2.38;;;;;;;10.92;100.00;100818.44;4902286;28;21209;-84
2021/09/24 04:59:19;;;;;;;7.70;2.00;;;;;;;10.94;100.00;100823.66;4910015;28;20051;-84
2021/09/24 05:01:45;;;;;;;13.57;2.65;;;;;;;10.96;100.00;100827.09;4900911;28;20069;-84
2021/09/24 05:04:12;;;;;;;7.68;1.90;;;;;;;10.99;100.00;100827.09;4894589;28;21148;-84
2021/09/24 05:06:38;;;;;;;8.82;1.77;;;;;;;10.97;100.00;100826.25;4905182;28;21016;-85
2021/09/24 05:09:05;;;;;;;6.47;1.92;;;;;;;10.96;100.00;100826.25;4912992;28;20623;-84
2021/09/24 05:11:32;;;;;;;10.38;2.60;;;;;;;11.00;100.00;100834.09;4917964;28;20051;-84
2021/09/24 05:13:59;;;;;;;7.78;1.63;;;;;;;11.02;100.00;100840.16;4919793;28;20066;-84
2021/09/24 05:16:26;;;;;;;8.00;2.13;;;;;;;11.01;100.00;100834.94;4892651;28;20066;-83
2021/09/24 05:18:54;;;;;;;5.90;2.00;;;;;;;11.01;100.00;100841.03;4910258;28;20062;-84
2021/09/24 05:21:20;;;;;;;7.40;2.45;;;;;;;11.09;100.00;100834.00;4917285;28;20463;-83
2021/09/24 05:23:47;;;;;;;11.50;2.85;;;;;;;11.21;100.00;100840.91;4921719;28;20058;-85
2021/09/24 05:26:20;;;;;;;6.22;2.35;;;;;;;11.30;100.00;100834.69;4922474;28;20473;-84
2021/09/24 05:28:47;;;;;;;4.13;1.40;;;;;;;11.40;100.00;100840.72;4919223;28;20051;-84
2021/09/24 05:31:14;;;;;;;13.68;2.17;;;;;;;11.51;100.00;100831.00;4904591;28;20047;-82
2021/09/24 05:33:40;;;;;;;3.72;1.45;;;;;;;11.63;100.00;100826.50;4914596;28;20101;-83
2021/09/24 05:36:11;;;;;;;10.27;2.10;;;;;;;11.77;100.00;100827.22;4922392;28;20130;-84
2021/09/24 05:38:37;;;;;;;4.97;1.40;;;;;;;11.90;100.00;100828.84;4920316;28;20219;-84
2021/09/24 05:41:04;;;;;;;5.45;1.45;;;;;;;12.04;100.00;100835.72;4905900;28;20567;-85
2021/09/24 05:43:31;;;;;;;7.10;1.77;;;;;;;12.13;100.00;100840.84;4929376;28;20594;-84
2021/09/24 05:46:12;;;;;;;10.18;3.25;;;;;;;12.22;100.00;100842.50;4914215;28;20051;-84
2021/09/24 05:48:39;;;;;;;4.70;1.88;;;;;;;12.30;100.00;100837.13;4934507;28;20043;-84
2021/09/24 05:51:05;;;;;;;7.45;1.48;;;;;;;12.36;100.00;100837.06;4925400;28;22360;-86
2021/09/24 05:53:35;;;;;;;8.40;2.08;;;;;;;12.44;100.00;100847.44;4928351;28;20051;-86
2021/09/24 05:56:03;;;;;;;10.40;1.52;;;;;;;12.49;100.00;100836.00;4917070;28;20047;-84
2021/09/24 05:58:29;;;;;;;3.13;1.60;;;;;;;12.59;100.00;100847.22;4920798;28;20043;-84
2021/09/24 06:00:58;;;;;;;5.03;1.00;;;;;;;12.68;100.00;100848.88;4929411;28;20051;-86
2021/09/24 06:03:24;;;;;;;9.43;1.95;;;;;;;12.76;100.00;100846.13;4926369;28;20050;-85
2021/09/24 06:05:51;;;;;;;4.70;1.50;;;;;;;12.84;100.00;100844.25;4921296;28;20063;-84
2021/09/24 06:08:18;;;;;;;4.25;1.77;;;;;;;12.90;100.00;100844.16;4918215;28;20573;-84
2021/09/24 06:10:48;;;;;;;7.28;1.63;;;;;;;12.95;100.00;100833.59;4925770;28;20044;-84
2021/09/24 06:13:15;;;;;;;3.60;1.38;;;;;;;13.00;100.00;100835.25;4910209;28;20047;-84
2021/09/24 06:15:42;;;;;;;4.07;1.50;;;;;;;13.07;100.00;100843.88;4917721;28;20047;-84
2021/09/24 06:18:08;;;;;;;10.15;2.38;;;;;;;13.12;100.00;100843.81;4923973;28;20139;-84
2021/09/24 06:20:35;;;;;;;7.75;1.52;;;;;;;13.17;100.00;100844.63;4920921;28;20062;-84
2021/09/24 06:23:04;;;;;;;3.72;1.95;;;;;;;13.22;100.00;100843.63;4923766;28;20923;-82
2021/09/24 06:25:36;;;;;;;2.85;1.42;;;;;;;13.28;100.00;100842.66;4921548;28;20071;-81
2021/09/24 06:28:03;;;;;;;6.00;2.20;;;;;;;13.36;100.00;100838.19;4909986;28;20086;-81
2021/09/24 06:30:29;;;;;;;11.05;3.50;;;;;;;13.39;100.00;100848.63;4908069;28;20062;-83
2021/09/24 06:32:56;;;;;;;6.93;1.40;;;;;;;13.49;99.63;100846.72;4900207;28;20055;-82
2021/09/24 06:35:23;;;;;;;10.38;2.00;;;;;;;13.55;99.42;100845.72;4919418;28;20101;-80
2021/09/24 06:37:50;;;;;;;7.13;1.77;;;;;;;13.59;98.90;100852.66;4917715;28;20486;-82
2021/09/24 06:40:19;;;;;;;3.67;1.60;;;;;;;13.66;98.70;100845.53;4924105;28;20047;-84
2021/09/24 06:42:46;;;;;;;8.20;2.22;;;;;;;13.72;98.60;100851.53;4908921;28;20070;-82
2021/09/24 06:45:14;;;;;;;5.50;1.30;;;;;;;13.79;97.66;100852.28;4922251;28;20284;-86
2021/09/24 06:47:45;;;;;;;9.20;1.83;;;;;;;13.83;97.60;100853.09;4923668;28;20402;-81
2021/09/24 06:50:13;;;;;;;2.22;1.45;;;;;;;13.87;97.25;100852.13;4904629;28;20142;-83
2021/09/24 06:52:42;;;;;;;5.00;1.40;;;;;;;13.91;97.50;100856.47;4905846;28;20118;-81
2021/09/24 06:55:10;;;;;;;7.70;2.22;;;;;;;13.91;97.40;100853.84;4922770;28;20047;-85
2021/09/24 06:57:40;;;;;;;7.25;1.27;;;;;;;13.93;97.36;100851.16;4924832;28;20130;-80
2021/09/24 07:00:08;;;;;;;4.00;1.20;;;;;;;13.97;97.46;100860.72;4926068;28;20047;-81
2021/09/24 07:02:35;;;;;;;7.60;2.20;;;;;;;13.99;97.54;100851.06;4902010;28;20059;-83
2021/09/24 07:05:01;;;;;;;7.03;1.73;;;;;;;14.00;97.45;100856.28;4924923;28;20110;-82
2021/09/24 07:07:28;;;;;;;7.18;2.20;;;;;;;13.99;97.68;100851.06;4907604;28;20521;-86
2021/09/24 07:09:58;;;;;;;9.02;1.75;;;;;;;14.01;97.79;100850.09;4909938;28;20057;-83
2021/09/24 07:12:27;;;;;;;11.60;3.20;;;;;;;14.01;97.85;100854.50;4901707;28;20063;-85
2021/09/24 07:14:55;;;;;;;8.45;2.17;;;;;;;14.02;97.93;100850.97;4921078;28;20111;-86
2021/09/24 07:17:23;;;;;;;6.43;1.85;;;;;;;14.03;97.96;100852.72;4932938;28;20550;-82
2021/09/24 07:19:49;;;;;;;10.00;2.33;;;;;;;14.06;97.50;100845.59;4901600;28;20461;-82
2021/09/24 07:22:16;;;;;;;4.93;1.77;;;;;;;14.11;97.23;100837.63;4927865;28;20055;-84
2021/09/24 07:24:43;;;;;;;5.80;2.13;;;;;;;14.22;96.83;100845.28;4925088;28;20083;-84
2021/09/24 07:27:10;;;;;;;3.70;1.33;;;;;;;14.29;96.28;100848.66;4909487;28;20047;-86
2021/09/24 07:29:36;;;;;;;5.90;1.60;;;;;;;14.36;95.82;100843.22;4925720;28;20119;-86
2021/09/24 07:32:06;;;;;;;9.27;2.17;;;;;;;14.44;95.43;100848.34;4923787;28;20063;-83
2021/09/24 07:37:21;;;;;;;2.67;1.25;;;;;;;14.63;93.93;100855.84;4915072;28;20059;-86
2021/09/24 07:39:47;;;;;;;4.38;1.77;;;;;;;14.67;93.94;100855.75;4922124;28;20054;-81
2021/09/24 07:42:14;;;;;;;5.88;1.50;;;;;;;14.69;94.10;100855.72;4918945;28;20510;-85
2021/09/24 07:44:44;;;;;;;3.80;1.40;;;;;;;14.70;93.67;100860.09;4905895;28;20054;-87
2021/09/24 07:47:11;;;;;;;3.75;1.25;;;;;;;14.72;93.44;100868.84;4906364;28;20043;-85
2021/09/24 07:49:37;;;;;;;8.63;2.08;;;;;;;14.75;93.05;100866.13;4914830;28;20057;-85
2021/09/24 07:52:07;;;;;;;5.28;1.42;;;;;;;14.78;93.02;100859.91;4908894;28;20146;-86
2021/09/24 07:54:35;;;;;;;5.20;1.42;;;;;;;14.80;92.75;100855.50;4899038;28;20534;-85
2021/09/24 07:57:02;;;;;;;5.85;2.10;;;;;;;14.82;92.63;100865.09;4922102;28;20047;-83
2021/09/24 07:59:29;;;;;;;6.20;1.55;;;;;;;14.84;92.38;100873.81;4922271;28;20102;-86
2021/09/24 08:01:55;;;;;;;4.28;1.13;;;;;;;14.89;92.20;100866.69;4918503;28;20145;-82
2021/09/24 08:04:22;;;;;;;8.30;2.38;;;;;;;14.93;91.12;100869.22;4920687;28;20407;-85
2021/09/24 08:06:50;;;;;;;1.40;1.13;;;;;;;14.98;91.88;100870.88;4919214;28;20043;-83
2021/09/24 08:09:16;;;;;;;3.28;1.50;;;;;;;15.01;90.64;100865.50;4918143;28;20490;-82
2021/09/24 08:11:43;;;;;;;4.57;1.10;;;;;;;15.05;90.13;100861.91;4908721;28;20047;-84
2021/09/24 08:14:11;;;;;;;6.75;1.10;;;;;;;15.10;90.18;100867.06;4927255;28;20047;-84
2021/09/24 08:16:44;;;;;;;2.22;0.90;;;;;;;15.12;89.00;100862.63;4923186;28;20400;-86
2021/09/24 08:19:11;;;;;;;3.90;1.33;;;;;;;15.16;89.04;100864.28;4909134;28;20047;-82
2021/09/24 08:21:39;;;;;;;1.48;1.15;;;;;;;15.21;89.05;100858.88;4924750;28;20127;-84
2021/09/24 08:24:06;;;;;;;3.85;1.50;;;;;;;15.27;88.55;100865.81;4923610;28;20122;-82
2021/09/24 08:26:34;;;;;;;4.38;1.08;;;;;;;15.34;87.85;100859.44;4907624;28;20598;-84
2021/09/24 08:29:03;;;;;;;7.50;1.60;;;;;;;15.39;86.97;100861.06;4921260;28;20116;-82
2021/09/24 08:31:36;;;;;;;4.13;1.10;;;;;;;15.47;86.65;100852.09;4910289;28;20405;-88
2021/09/24 08:34:06;;;;;;;2.75;1.27;;;;;;;15.50;86.37;100858.16;4915478;28;20236;-83
2021/09/24 08:36:34;;;;;;;8.35;0.95;;;;;;;15.56;85.87;100857.13;4930529;28;20043;-88
2021/09/24 08:39:11;;;;;;;3.95;0.90;;;;;;;15.63;85.46;100861.34;4929377;28;20051;-86
2021/09/24 08:41:39;;;;;;;6.97;1.30;;;;;;;15.67;85.45;100865.63;4911827;28;20122;-88
2021/09/24 08:44:06;;;;;;;3.17;1.38;;;;;;;15.69;86.04;100855.88;4927805;28;20426;-85
2021/09/24 08:46:41;;;;;;;5.68;1.15;;;;;;;15.69;85.75;100869.06;4906475;28;20080;-87
2021/09/24 08:49:09;;;;;;;3.35;1.00;;;;;;;15.70;85.46;100862.03;4926479;28;20070;-85
2021/09/24 08:51:36;;;;;;;3.75;1.23;;;;;;;15.67;85.77;100864.75;4908384;28;20170;-84
2021/09/24 08:54:05;;;;;;;2.90;1.15;;;;;;;15.67;85.92;100854.19;4903758;28;20594;-82
2021/09/24 08:56:31;;;;;;;5.75;1.35;;;;;;;15.68;85.89;100855.91;4922234;28;20117;-81
2021/09/24 08:58:58;;;;;;;7.80;1.80;;;;;;;15.70;85.26;100860.25;4920133;28;20517;-85
2021/09/24 09:01:25;;;;;;;4.82;1.42;;;;;;;15.68;84.89;100856.81;4917055;28;20051;-82
2021/09/24 09:03:52;;;;;;;4.90;0.90;;;;;;;15.73;84.80;100861.09;4923121;28;20047;-83
2021/09/24 09:06:19;;;;;;;3.03;1.15;;;;;;;15.76;84.12;100856.59;4903873;28;20625;-85
2021/09/24 09:08:47;;;;;;;4.68;1.00;;;;;;;15.80;84.26;100852.06;4923553;28;20043;-83
2021/09/24 09:11:19;;;;;;;5.57;1.35;;;;;;;15.88;83.90;100845.72;4901551;28;20051;-87
2021/09/24 09:13:53;;;;;;;2.97;1.05;;;;;;;16.08;83.41;100857.50;4921413;28;20051;-85
2021/09/24 09:16:38;;;;;;;6.60;1.00;;;;;;;16.30;81.66;100848.94;4918521;28;20174;-82
2021/09/24 09:19:17;;;;;;;3.58;1.60;;;;;;;16.53;81.04;100846.47;4910613;28;20059;-82
2021/09/24 09:21:47;;;;;;;6.85;2.33;;;;;;;16.68;79.52;100844.28;4908516;28;20161;-86
2021/09/24 09:24:28;;;;;;;7.53;1.38;;;;;;;16.81;79.19;100850.88;4901282;28;20535;-82
2021/09/24 09:27:19;;;;;;;11.90;1.63;;;;;;;16.88;78.46;100835.69;4923902;28;20047;-85
2021/09/24 09:30:12;;;;;;;3.00;1.10;;;;;;;17.00;78.22;100837.97;4916615;28;20123;-86
2021/09/24 09:32:41;;;;;;;6.97;1.50;;;;;;;17.19;76.88;100830.31;4907135;28;20054;-83
2021/09/24 09:35:12;;;;;;;2.95;2.00;;;;;;;17.46;76.10;100840.84;4915471;28;20058;-82
2021/09/24 09:37:40;;;;;;;4.03;1.48;;;;;;;17.74;73.79;100839.88;4915236;28;20043;-85
2021/09/24 09:40:16;;;;;;;4.32;1.52;;;;;;;17.82;73.85;100837.81;4929176;28;21038;-88
2021/09/24 09:42:45;;;;;;;3.13;1.15;;;;;;;17.87;73.04;100827.03;4916330;28;20055;-84
2021/09/24 09:45:16;;;;;;;4.07;1.50;;;;;;;18.16;72.87;100835.72;4906200;28;20051;-85
2021/09/24 09:47:47;;;;;;;2.63;1.20;;;;;;;18.51;71.81;100834.38;4917321;28;20047;-85
2021/09/24 09:50:26;;;;;;;8.32;2.00;;;;;;;18.72;69.93;100823.84;4915084;28;20051;-84
2021/09/24 09:53:01;;;;;;;5.20;2.10;;;;;;;18.64;69.79;100833.88;4910728;28;20063;-87
2021/09/24 09:55:40;;;;;;;2.55;1.30;;;;;;;18.54;70.07;100830.75;4935019;28;20046;-86
2021/09/24 09:58:11;;;;;;;7.68;3.22;;;;;;;18.42;71.47;100832.09;4900514;28;20676;-83
2021/09/24 10:01:11;;;;;;;4.57;2.35;;;;;;;18.39;71.13;100829.53;4918678;28;20063;-86
2021/09/24 10:03:55;;;;;;;3.22;1.48;;;;;;;18.64;70.39;100842.72;4914231;28;20055;-85
2021/09/24 10:06:27;;;;;;;;;;;;;;;18.79;69.67;100830.63;4903907;28;20079;-83
2021/09/24 10:08:59;;;;;;;6.10;2.22;;;;;;;18.76;69.22;100828.09;4920924;28;19930;-84
2021/09/24 10:11:39;;;;;;;2.53;1.40;;;;;;;18.48;70.77;100829.19;4917433;28;20051;-85
2021/09/24 10:14:10;;;;;;;4.80;1.63;;;;;;;18.21;72.19;100833.75;4902889;28;20058;-86
2021/09/24 10:16:47;;;;;;;7.90;2.00;;;;;;;18.07;72.92;100823.72;4911635;28;20039;-83
2021/09/24 10:19:19;;;;;;;6.00;2.17;;;;;;;17.96;73.64;100829.38;4924216;28;20552;-83
2021/09/24 10:21:46;;;;;;;5.65;1.67;;;;;;;17.90;73.65;100821.66;4909662;28;20063;-84
2021/09/24 10:24:13;;;;;;;3.88;1.65;;;;;;;17.92;73.69;100824.25;4922069;28;20050;-83
2021/09/24 10:26:49;;;;;;;3.35;2.20;;;;;;;17.90;73.98;100829.59;4911992;28;20686;-83
2021/09/24 10:29:26;;;;;;;6.57;1.80;;;;;;;17.91;73.37;100822.50;4920827;28;20162;-84
2021/09/24 10:31:56;;;;;;;5.43;2.10;;;;;;;17.82;72.56;100829.88;4906411;28;20043;-83
2021/09/24 10:34:30;;;;;;;7.50;1.98;;;;;;;17.74;73.35;100820.47;4904973;28;20047;-85
2021/09/24 10:36:57;;;;;;;4.88;1.83;;;;;;;17.72;73.05;100817.88;4919327;28;20058;-83
2021/09/24 10:39:30;;;;;;;8.13;2.40;;;;;;;17.83;72.81;100828.97;4923361;28;20148;-87
2021/09/24 10:42:24;;;;;;;3.05;2.10;;;;;;;18.03;71.69;100822.09;4925639;28;20047;-84
2021/09/24 10:45:15;;;;;;;6.15;2.45;;;;;;;18.44;70.36;100819.63;4907146;28;20082;-88
2021/09/24 10:47:45;;;;;;;7.53;3.08;;;;;;;19.43;67.15;100818.25;4926675;28;20458;-85
2021/09/24 10:50:57;;;;;;;5.88;3.10;;;;;;;20.32;62.91;100807.22;4928057;28;20174;-83
2021/09/24 10:53:29;;;;;;;7.95;2.55;;;;;;;20.96;62.08;100799.72;4907840;28;20077;-84
2021/09/24 10:55:58;;;;;;;5.80;2.85;;;;;;;21.35;60.01;100801.28;4922183;28;20055;-84
2021/09/24 10:58:27;;;;;;;4.18;2.95;;;;;;;21.74;57.53;100788.66;4933197;28;20051;-85
2021/09/24 11:01:14;;;;;;;6.18;2.75;;;;;;;21.37;58.47;100793.22;4913351;28;22542;-85
2021/09/24 11:04:02;;;;;;;8.20;3.08;;;;;;;21.44;58.20;100794.63;4919712;28;20667;-84
2021/09/24 11:06:51;;;;;;;3.92;2.75;;;;;;;21.35;56.92;100795.13;4911348;28;20122;-83
2021/09/24 11:09:21;;;;;;;5.10;3.60;;;;;;;21.31;57.38;100789.09;4921972;28;20047;-82
2021/09/24 11:12:05;;;;;;;5.18;3.15;;;;;;;20.81;59.35;100796.91;4922429;28;20047;-83
2021/09/24 11:14:41;;;;;;;;;;;;;;;20.47;60.39;100803.00;4939183;28;20070;-81
2021/09/24 11:17:12;;;;;;;3.75;3.33;;;;;;;20.70;61.02;100793.91;4925461;28;19926;-86
2021/09/24 11:19:51;;;;;;;5.10;3.72;;;;;;;20.73;59.84;100784.91;4921941;28;20044;-82
2021/09/24 11:22:39;;;;;;;5.57;5.03;;;;;;;20.72;59.31;100785.88;4924415;28;21127;-86
2021/09/24 11:25:11;;;;;;;8.02;4.97;;;;;;;20.43;60.59;100793.44;4918972;28;20055;-86
2021/09/24 11:27:42;;;;;;;4.70;4.18;;;;;;;20.36;60.83;100781.34;4903923;28;21098;-84
2021/09/24 11:30:15;;;;;;;5.30;4.80;;;;;;;20.12;60.98;100790.41;4944225;28;20055;-84
2021/09/24 11:32:49;;;;;;;5.65;4.75;;;;;;;19.77;62.11;100787.56;4917674;28;20070;-85